Aérodrome :
LOGIN :

S'inscrire | Disclaimer

   EN    FR    IT 

 










Légende :    VFR   VFR Marginal   IFR   IFR Intensif   IFR Très Intensif
Visi : 
Plafond : 
>= 8 km
>= 3000ft
5 à 8 km
1000 à 3000 ft
1500m à 5 km
500 à 1000 ft
800 à 1500m
200 à 500 ft
< 800m
< 200 ft
Symboles :   Orages  Brouillard  Fortes neiges  Fortes précipitations  Vent > 20 kt
SIGMETs :   Divers  Orages  Givrage  Turbulence  Onde Orograph.  Cendres Volcan.







- Altitude de l'aérodrome : 13 ft
- Code IATA : GOA


LIMJ - Genoa Cristoforo Colombo

DERNIER METAR :
  • 270520Z 18006KT 9999 -RA FEW025 BKN050 17/14 Q1008

METARs EXPIRÉS :
  • 270450Z 03003KT 300V090 9999 -RA FEW025 BKN050 17/14 Q1008
  • 270420Z 14003KT 070V190 9999 -RA FEW035 BKN050 17/13 Q1008
  • 270350Z 03003KT 9999 -RA FEW035 BKN050 17/13 Q1008
  • 270320Z 02004KT 350V060 9999 -RA FEW035 BKN050 17/13 Q1008
  • 270250Z 05003KT 010V080 9999 FEW035 BKN070 18/13 Q1008

TAF TAF LIMJ
Valide du 27 à 06h jusqu'au 28 à 06h UTC


270500Z 2706/2806 03008KT 9999 SCT025 BKN050
TEMPO 2706/2715 RA
Pas de NOTAMs connus pour ce terrain.



MET'MAP, la Météo Aéronautique d'un coup d'oeil ! - Copyright ORBIFLY Décembre 2007 - Disclaimer

ORBIFLY MET'MAP TEAM :

Programmation & Développement : Alexandra Zaïnal
Conception & Développement : Baudouin d'Aumeries
Co-Programmation & Développement : Marc-Olivier Méhu
Soutien technique & logistique : Manuel Goepfert

Contact : metmap@orbifly.com




SOURCES & CREDITS :

   NOAA